Time;durP1;ratioP1;P1;durP2;ratioP2;P2;SDS_P1;SDS_P2;PMS_P1;PMS_P2;Temp;Humidity;BMP_temperature;BMP_pressure;BME280_temperature;BME280_humidity;BME280_pressure;Samples;Min_cycle;Max_cycle;Signal;HPM_P1;HPM_P2
2021/03/08 00:00:12;;;;;;;11.27;8.48;;;4.20;99.90;;;;;;5038785;28;20254;-78
2021/03/08 00:02:39;;;;;;;12.20;8.27;;;4.20;99.90;;;;;;5043552;28;20190;-78
2021/03/08 00:05:06;;;;;;;11.18;9.05;;;4.20;99.90;;;;;;5044431;28;20211;-78
2021/03/08 00:07:32;;;;;;;13.20;8.88;;;4.30;99.90;;;;;;5052858;28;20194;-77
2021/03/08 00:09:58;;;;;;;15.30;8.13;;;4.30;99.90;;;;;;5038623;28;20672;-78
2021/03/08 00:12:25;;;;;;;11.25;8.60;;;4.30;99.90;;;;;;5050750;28;20195;-79
2021/03/08 00:14:52;;;;;;;11.18;8.13;;;4.30;99.90;;;;;;5046654;28;20666;-79
2021/03/08 00:17:18;;;;;;;16.58;8.77;;;4.20;99.90;;;;;;5047095;28;20186;-79
2021/03/08 00:19:44;;;;;;;14.60;9.02;;;4.20;99.90;;;;;;5052541;28;20595;-78
2021/03/08 00:22:10;;;;;;;11.23;7.82;;;4.20;99.90;;;;;;5038527;28;20557;-78
2021/03/08 00:24:37;;;;;;;9.50;7.80;;;4.20;99.90;;;;;;5041444;28;20226;-78
2021/03/08 00:27:03;;;;;;;13.38;9.45;;;4.20;99.90;;;;;;5034973;28;20646;-78
2021/03/08 00:29:29;;;;;;;17.23;9.23;;;4.20;99.90;;;;;;5048436;28;20186;-78
2021/03/08 00:31:56;;;;;;;9.38;7.35;;;4.20;99.90;;;;;;5037628;28;20194;-78
2021/03/08 00:34:22;;;;;;;13.15;7.70;;;4.20;99.90;;;;;;5037492;28;20277;-78
2021/03/08 00:36:49;;;;;;;10.82;8.10;;;4.30;99.90;;;;;;5045574;28;20186;-78
2021/03/08 00:39:15;;;;;;;9.60;6.93;;;4.30;99.90;;;;;;5046485;28;20579;-78
2021/03/08 00:41:41;;;;;;;14.88;7.90;;;4.30;99.90;;;;;;5054722;28;20568;-78
2021/03/08 00:44:07;;;;;;;14.35;8.10;;;4.30;99.90;;;;;;5054351;28;20201;-79
2021/03/08 00:46:34;;;;;;;11.70;8.15;;;4.30;99.90;;;;;;5044403;28;20190;-79
2021/03/08 00:49:01;;;;;;;9.90;7.63;;;4.30;99.90;;;;;;5033252;28;20201;-79
2021/03/08 00:51:28;;;;;;;10.45;8.13;;;4.20;99.90;;;;;;5033106;28;20221;-79
2021/03/08 00:53:54;;;;;;;14.00;7.88;;;4.20;99.90;;;;;;5034511;28;20252;-78
2021/03/08 00:56:20;;;;;;;12.45;6.82;;;4.20;99.90;;;;;;5034459;28;20257;-78
2021/03/08 00:58:46;;;;;;;12.25;7.20;;;4.30;99.90;;;;;;5034704;28;20213;-78
2021/03/08 01:01:13;;;;;;;10.38;7.50;;;4.30;99.90;;;;;;5033917;28;20202;-78
2021/03/08 01:03:39;;;;;;;11.68;7.40;;;4.20;99.90;;;;;;5034401;28;20190;-78
2021/03/08 01:06:06;;;;;;;11.45;7.38;;;4.20;99.90;;;;;;5034598;28;20191;-78
2021/03/08 01:08:32;;;;;;;9.95;7.50;;;4.20;99.90;;;;;;5034380;28;20685;-78
2021/03/08 01:10:59;;;;;;;11.65;6.95;;;4.20;99.90;;;;;;5034215;28;20194;-78
2021/03/08 01:13:25;;;;;;;9.93;6.65;;;4.20;99.90;;;;;;5034469;28;20191;-78
2021/03/08 01:15:52;;;;;;;10.45;7.10;;;4.20;99.90;;;;;;5034165;28;20194;-79
2021/03/08 01:18:18;;;;;;;9.23;6.85;;;4.20;99.90;;;;;;5034146;28;20190;-78
2021/03/08 01:20:45;;;;;;;8.00;6.60;;;4.20;99.90;;;;;;5034353;28;20561;-78
2021/03/08 01:23:12;;;;;;;14.18;7.30;;;4.20;99.90;;;;;;5034255;28;20201;-78
2021/03/08 01:25:39;;;;;;;10.80;7.25;;;4.10;99.90;;;;;;5033831;28;20240;-78
2021/03/08 01:28:06;;;;;;;10.40;6.15;;;4.10;99.90;;;;;;5034116;28;20201;-78
2021/03/08 01:30:35;;;;;;;10.10;7.10;;;4.00;99.90;;;;;;5033878;28;20256;-78
2021/03/08 01:33:02;;;;;;;8.18;6.32;;;4.00;99.90;;;;;;5044783;28;20182;-78
2021/03/08 01:35:28;;;;;;;9.23;6.70;;;4.00;99.90;;;;;;5053919;28;20196;-78
2021/03/08 01:37:55;;;;;;;9.13;6.10;;;3.90;99.90;;;;;;5053939;28;20209;-77
2021/03/08 01:40:26;;;;;;;11.35;7.18;;;4.00;99.90;;;;;;5053792;28;20193;-77
2021/03/08 01:42:52;;;;;;;12.63;7.47;;;4.00;99.90;;;;;;5053869;28;20220;-77
2021/03/08 01:45:20;;;;;;;7.65;6.80;;;4.00;99.90;;;;;;5053383;28;20218;-77
2021/03/08 01:47:48;;;;;;;13.90;6.53;;;3.90;99.90;;;;;;5053767;28;20190;-77
2021/03/08 01:50:20;;;;;;;11.07;6.45;;;4.00;99.90;;;;;;5053698;28;20194;-77
2021/03/08 01:52:47;;;;;;;7.60;6.00;;;3.90;99.90;;;;;;5053572;28;20193;-77
2021/03/08 01:55:14;;;;;;;12.75;6.65;;;3.90;99.90;;;;;;5053536;28;20193;-77
2021/03/08 01:57:41;;;;;;;11.82;6.60;;;3.80;99.90;;;;;;5053203;28;20198;-77
2021/03/08 02:00:09;;;;;;;6.28;5.35;;;3.80;99.90;;;;;;5053525;28;20218;-77
2021/03/08 02:02:36;;;;;;;8.07;5.18;;;3.80;99.90;;;;;;5053508;28;20205;-78
2021/03/08 02:12:11;;;;;;;8.30;5.15;;;3.70;99.90;;;;;;5033437;28;20176;-78
2021/03/08 02:15:02;;;;;;;10.27;5.25;;;3.50;99.90;;;;;;5032623;28;20585;-78
2021/03/08 02:17:34;;;;;;;7.30;5.70;;;3.40;99.90;;;;;;5033252;28;20194;-78
2021/03/08 02:20:27;;;;;;;7.85;5.50;;;3.20;99.90;;;;;;5033072;28;20289;-78
2021/03/08 02:23:25;;;;;;;8.02;5.10;;;3.10;99.90;;;;;;5032969;28;20606;-78
2021/03/08 02:26:14;;;;;;;6.05;4.75;;;3.00;99.90;;;;;;5032891;28;20317;-78
2021/03/08 02:29:21;;;;;;;7.70;5.57;;;2.90;99.90;;;;;;5032947;28;20278;-78
2021/03/08 02:31:50;;;;;;;6.05;3.65;;;2.80;99.90;;;;;;5033472;28;20190;-79
2021/03/08 02:34:22;;;;;;;5.47;3.83;;;2.70;99.90;;;;;;5052865;28;20293;-78
2021/03/08 02:36:56;;;;;;;5.57;3.72;;;2.60;99.90;;;;;;5052977;28;20281;-78
2021/03/08 02:39:26;;;;;;;6.15;3.60;;;2.50;99.90;;;;;;5052585;28;20463;-78
2021/03/08 02:41:55;;;;;;;6.15;4.07;;;2.40;99.90;;;;;;5052889;28;20194;-78
2021/03/08 02:44:26;;;;;;;5.50;4.25;;;2.40;99.90;;;;;;5052655;28;20308;-78
2021/03/08 02:46:56;;;;;;;6.40;3.45;;;2.40;99.90;;;;;;5052918;28;20190;-78
2021/03/08 02:49:24;;;;;;;8.63;4.60;;;2.30;99.90;;;;;;5052479;28;20685;-78
2021/03/08 02:51:56;;;;;;;6.38;4.00;;;2.30;99.90;;;;;;5052967;28;20281;-78
2021/03/08 02:54:23;;;;;;;4.72;3.65;;;2.20;99.90;;;;;;5052708;28;20232;-78
2021/03/08 02:56:52;;;;;;;8.82;4.40;;;2.20;99.90;;;;;;5052721;28;20225;-79
2021/03/08 02:59:20;;;;;;;6.00;4.88;;;2.20;99.90;;;;;;5047675;28;20289;-79
2021/03/08 03:01:47;;;;;;;7.95;4.40;;;2.20;99.90;;;;;;5043355;28;20188;-79
2021/03/08 03:04:15;;;;;;;4.80;3.83;;;2.10;99.90;;;;;;5032441;28;20301;-78
2021/03/08 03:06:44;;;;;;;5.78;4.60;;;2.10;99.90;;;;;;5032885;28;20289;-79
2021/03/08 03:09:13;;;;;;;6.45;4.85;;;2.10;99.90;;;;;;5032403;28;20294;-79
2021/03/08 03:11:41;;;;;;;7.07;3.85;;;2.10;99.90;;;;;;5032674;28;20226;-79
2021/03/08 03:14:11;;;;;;;7.07;4.53;;;2.10;99.90;;;;;;5032453;28;20644;-79
2021/03/08 03:16:39;;;;;;;8.20;4.47;;;2.00;99.90;;;;;;5032496;28;20193;-78
2021/03/08 03:19:06;;;;;;;10.90;6.32;;;2.00;99.90;;;;;;5032246;28;20289;-78
2021/03/08 03:21:35;;;;;;;6.25;4.68;;;1.90;99.90;;;;;;5032613;28;20244;-79
2021/03/08 03:24:01;;;;;;;7.90;4.50;;;1.90;99.90;;;;;;5032243;28;20321;-78
2021/03/08 03:26:30;;;;;;;8.85;5.05;;;1.90;99.90;;;;;;5036318;28;20225;-78
2021/03/08 03:28:57;;;;;;;7.70;4.88;;;1.80;99.90;;;;;;5036305;28;20257;-78
2021/03/08 03:31:24;;;;;;;8.15;5.50;;;1.80;99.90;;;;;;5036163;28;20241;-78
2021/03/08 03:33:50;;;;;;;6.30;5.10;;;1.80;99.90;;;;;;5053612;28;20214;-78
2021/03/08 03:36:17;;;;;;;8.82;5.07;;;1.70;99.90;;;;;;5056232;28;20244;-78
2021/03/08 03:38:45;;;;;;;6.30;4.70;;;1.70;99.90;;;;;;5056039;28;20194;-78
2021/03/08 03:41:11;;;;;;;10.00;4.72;;;1.60;99.90;;;;;;5056089;28;20201;-77
2021/03/08 03:43:37;;;;;;;8.13;4.30;;;1.60;99.90;;;;;;5056052;28;20259;-78
2021/03/08 03:46:04;;;;;;;7.00;4.60;;;1.60;99.90;;;;;;5055771;28;20304;-78
2021/03/08 03:48:30;;;;;;;7.97;4.38;;;1.60;99.90;;;;;;5056067;28;20194;-78
2021/03/08 03:50:57;;;;;;;6.22;4.40;;;1.50;99.90;;;;;;5056055;28;20285;-78
2021/03/08 03:53:23;;;;;;;8.45;4.30;;;1.50;99.90;;;;;;5055977;28;20201;-78
2021/03/08 03:55:50;;;;;;;8.10;4.22;;;1.50;99.90;;;;;;5055759;28;20310;-79
2021/03/08 03:58:20;;;;;;;6.72;4.50;;;1.50;99.90;;;;;;5055806;28;20221;-79
2021/03/08 04:00:54;;;;;;;10.70;4.15;;;1.40;99.90;;;;;;5055438;28;20281;-79
2021/03/08 04:03:26;;;;;;;10.50;4.93;;;1.40;99.90;;;;;;5055886;28;20228;-78
2021/03/08 04:05:53;;;;;;;4.93;4.43;;;1.30;99.90;;;;;;5055593;28;20312;-78
2021/03/08 04:08:24;;;;;;;9.23;4.75;;;1.30;99.90;;;;;;5055523;28;20190;-78
2021/03/08 04:10:51;;;;;;;8.52;4.20;;;1.20;99.90;;;;;;5055380;28;20225;-78
2021/03/08 04:13:18;;;;;;;6.03;4.00;;;1.20;99.90;;;;;;5055341;28;20289;-78
2021/03/08 04:15:44;;;;;;;8.18;4.75;;;1.20;99.90;;;;;;5055446;28;20194;-78
2021/03/08 04:18:12;;;;;;;6.38;3.38;;;1.20;99.90;;;;;;5055427;28;20272;-78
2021/03/08 04:20:40;;;;;;;4.20;3.22;;;1.10;99.90;;;;;;5055344;28;20190;-78
2021/03/08 04:23:07;;;;;;;5.75;3.78;;;1.10;99.90;;;;;;5055359;28;20222;-78
2021/03/08 04:25:35;;;;;;;6.20;3.88;;;1.10;99.90;;;;;;5054784;28;20303;-78
2021/03/08 04:28:04;;;;;;;5.57;4.30;;;1.10;99.90;;;;;;5055102;28;20736;-78
2021/03/08 04:30:31;;;;;;;4.60;3.70;;;1.00;99.90;;;;;;5055187;28;20194;-78
2021/03/08 04:32:58;;;;;;;6.28;4.05;;;1.00;99.90;;;;;;5044918;28;20653;-78
2021/03/08 04:35:27;;;;;;;10.15;4.07;;;1.00;99.90;;;;;;5035019;28;20289;-78
2021/03/08 04:37:54;;;;;;;5.30;3.83;;;0.90;99.90;;;;;;5034203;28;20195;-78
2021/03/08 04:40:21;;;;;;;6.72;4.05;;;0.90;99.90;;;;;;5034895;28;20237;-78
2021/03/08 04:42:48;;;;;;;5.85;3.40;;;0.80;99.90;;;;;;5035152;28;20226;-78
2021/03/08 04:45:18;;;;;;;7.03;3.58;;;0.90;99.90;;;;;;5034932;28;20316;-78
2021/03/08 04:47:46;;;;;;;7.65;4.07;;;0.80;99.90;;;;;;5034836;28;20669;-78
2021/03/08 04:50:14;;;;;;;5.53;3.80;;;0.80;99.90;;;;;;5034746;28;20653;-78
2021/03/08 04:52:44;;;;;;;5.82;3.70;;;0.80;99.90;;;;;;5034766;28;20199;-78
2021/03/08 04:55:12;;;;;;;4.55;2.97;;;0.80;99.90;;;;;;5034936;28;20665;-78
2021/03/08 04:57:39;;;;;;;11.85;5.43;;;0.70;99.90;;;;;;5034863;28;20233;-78
2021/03/08 05:00:08;;;;;;;3.78;3.38;;;0.70;99.90;;;;;;5034814;28;20285;-78
2021/03/08 05:02:35;;;;;;;3.58;3.15;;;0.60;99.90;;;;;;5043366;28;20233;-78
2021/03/08 05:05:04;;;;;;;4.70;2.67;;;0.60;99.90;;;;;;5054216;28;20304;-78
2021/03/08 05:07:33;;;;;;;3.72;3.08;;;0.60;99.90;;;;;;5054653;28;20194;-78
2021/03/08 05:10:01;;;;;;;5.88;4.07;;;0.60;99.90;;;;;;5054287;28;20716;-78
2021/03/08 05:12:28;;;;;;;5.82;3.78;;;0.60;99.90;;;;;;5054566;28;20637;-78
2021/03/08 05:14:57;;;;;;;5.72;3.38;;;0.60;99.90;;;;;;5054581;28;20284;-78
2021/03/08 05:17:23;;;;;;;9.60;3.78;;;0.50;99.90;;;;;;5054311;28;20240;-78
2021/03/08 05:19:52;;;;;;;5.93;3.95;;;0.50;99.90;;;;;;5054086;28;20228;-78
2021/03/08 05:22:18;;;;;;;3.53;2.90;;;0.50;99.90;;;;;;5054316;28;20268;-78
2021/03/08 05:24:50;;;;;;;7.63;4.05;;;0.50;99.90;;;;;;5054021;28;20316;-78
2021/03/08 05:27:17;;;;;;;7.75;3.60;;;0.50;99.90;;;;;;5053996;28;20281;-79
2021/03/08 05:29:45;;;;;;;6.35;4.00;;;0.40;99.90;;;;;;5054160;28;20255;-78
2021/03/08 05:32:15;;;;;;;6.18;3.80;;;0.40;99.90;;;;;;5050176;28;20210;-78
2021/03/08 05:34:46;;;;;;;5.05;3.63;;;0.40;99.90;;;;;;5034268;28;20194;-77
2021/03/08 05:37:14;;;;;;;6.63;3.58;;;0.40;99.90;;;;;;5033968;28;20289;-77
2021/03/08 05:39:42;;;;;;;4.70;3.08;;;0.40;99.90;;;;;;5034102;28;20281;-77
2021/03/08 05:42:10;;;;;;;5.95;3.63;;;0.40;99.90;;;;;;5033930;28;20233;-77
2021/03/08 05:44:41;;;;;;;5.72;3.90;;;0.40;99.90;;;;;;5033715;28;20250;-77
2021/03/08 05:47:49;;;;;;;7.13;4.15;;;0.40;99.90;;;;;;5033849;28;20190;-77
2021/03/08 05:50:35;;;;;;;5.53;4.18;;;0.40;99.90;;;;;;5016267;28;20285;-77
2021/03/08 05:53:25;;;;;;;9.25;4.00;;;0.40;99.90;;;;;;5033571;28;20190;-78
2021/03/08 05:56:07;;;;;;;4.47;3.22;;;0.40;99.90;;;;;;5033483;28;20194;-78
2021/03/08 05:58:47;;;;;;;3.85;2.40;;;0.40;99.90;;;;;;5033650;28;20199;-78
2021/03/08 06:01:58;;;;;;;6.80;3.13;;;0.50;99.90;;;;;;5033405;28;20197;-78
2021/03/08 06:04:50;;;;;;;5.60;3.42;;;0.50;99.90;;;;;;5008944;28;20219;-78
2021/03/08 06:07:56;;;;;;;6.60;3.83;;;0.50;99.90;;;;;;5033397;28;20202;-78
2021/03/08 06:10:24;;;;;;;3.83;3.10;;;0.60;99.90;;;;;;5033571;28;20277;-77
2021/03/08 06:12:54;;;;;;;5.47;3.63;;;0.70;99.90;;;;;;5033290;28;20281;-77
2021/03/08 06:15:22;;;;;;;7.68;3.13;;;0.70;99.90;;;;;;5033327;28;20217;-77
2021/03/08 06:17:50;;;;;;;5.35;3.70;;;0.80;99.90;;;;;;5033160;28;20273;-78
2021/03/08 06:20:18;;;;;;;5.82;4.35;;;0.90;99.90;;;;;;5033032;28;20198;-78
2021/03/08 06:22:45;;;;;;;8.75;3.30;;;1.00;99.90;;;;;;5033250;28;20281;-78
2021/03/08 06:25:12;;;;;;;4.00;3.58;;;1.10;99.90;;;;;;5032857;28;20234;-78
2021/03/08 06:27:41;;;;;;;7.07;3.55;;;1.20;99.90;;;;;;5033124;28;20329;-78
2021/03/08 06:30:09;;;;;;;5.95;3.50;;;1.40;99.90;;;;;;5033113;28;20285;-78
2021/03/08 06:32:35;;;;;;;7.82;3.88;;;1.50;99.90;;;;;;5039602;28;20218;-77
2021/03/08 06:35:01;;;;;;;5.70;3.95;;;1.50;99.90;;;;;;5053036;28;20218;-77
2021/03/08 06:37:27;;;;;;;5.13;2.85;;;1.60;99.90;;;;;;5052942;28;20213;-77
2021/03/08 06:39:54;;;;;;;5.32;3.40;;;1.80;99.90;;;;;;5053002;28;20285;-77
2021/03/08 06:42:20;;;;;;;3.53;3.22;;;2.00;99.90;;;;;;5052775;28;20332;-78
2021/03/08 06:44:47;;;;;;;4.93;3.65;;;2.10;99.90;;;;;;5052752;28;20213;-78
2021/03/08 06:47:14;;;;;;;7.05;3.45;;;2.20;99.90;;;;;;5052191;28;20228;-78
2021/03/08 06:49:40;;;;;;;5.40;2.90;;;2.40;99.90;;;;;;5052859;28;20277;-78
2021/03/08 06:52:08;;;;;;;3.15;2.88;;;2.50;99.90;;;;;;5038933;28;20285;-78
2021/03/08 06:54:35;;;;;;;5.45;3.63;;;2.60;99.90;;;;;;5052789;28;20604;-78
2021/03/08 06:57:02;;;;;;;6.78;2.40;;;2.70;99.90;;;;;;5052501;28;20221;-77
2021/03/08 06:59:28;;;;;;;4.40;2.70;;;2.90;99.90;;;;;;5051887;28;20230;-78
2021/03/08 07:01:55;;;;;;;5.80;2.58;;;3.00;99.90;;;;;;5049835;28;20280;-77
2021/03/08 07:04:22;;;;;;;7.38;3.13;;;3.10;99.90;;;;;;5032659;28;20240;-77
2021/03/08 07:07:01;;;;;;;3.75;3.03;;;3.20;99.90;;;;;;5032725;28;20208;-78
2021/03/08 07:09:27;;;;;;;5.15;2.72;;;3.30;99.90;;;;;;5032653;28;20190;-75
2021/03/08 07:12:08;;;;;;;3.67;2.45;;;3.40;99.90;;;;;;5032565;28;20197;-76
2021/03/08 07:14:37;;;;;;;5.07;2.97;;;3.40;99.90;;;;;;5030511;28;20225;-76
2021/03/08 07:17:26;;;;;;;4.75;2.88;;;3.40;99.90;;;;;;5032631;28;20288;-77
2021/03/08 07:19:53;;;;;;;5.25;2.30;;;3.50;99.90;;;;;;5032630;28;20607;-77
2021/03/08 07:22:36;;;;;;;4.50;2.20;;;3.60;99.90;;;;;;5032460;28;20290;-77
2021/03/08 07:25:05;;;;;;;2.80;2.10;;;3.60;99.90;;;;;;5032311;28;20258;-77
2021/03/08 07:27:41;;;;;;;3.17;2.15;;;3.70;99.90;;;;;;5032455;28;20199;-78
2021/03/08 07:30:08;;;;;;;3.33;3.03;;;3.70;99.90;;;;;;5032098;28;20285;-77
2021/03/08 07:32:37;;;;;;;2.20;2.00;;;3.70;99.90;;;;;;5043976;28;20189;-77
2021/03/08 07:35:04;;;;;;;2.97;2.22;;;3.80;99.90;;;;;;5044560;28;20277;-76
2021/03/08 07:37:43;;;;;;;2.35;2.13;;;3.80;99.90;;;;;;5041042;28;20289;-77
2021/03/08 07:40:10;;;;;;;7.65;3.47;;;3.90;99.90;;;;;;5039609;28;20240;-77
2021/03/08 07:42:42;;;;;;;4.05;1.85;;;3.80;99.90;;;;;;5032016;28;20230;-77
2021/03/08 07:45:09;;;;;;;2.80;1.80;;;3.80;99.90;;;;;;5032187;28;20229;-76
2021/03/08 07:47:36;;;;;;;5.57;1.95;;;3.70;99.90;;;;;;5038263;28;20214;-84
2021/03/08 07:50:25;;;;;;;4.47;2.15;;;3.70;99.90;;;;;;5052129;28;20284;-85
2021/03/08 07:52:53;;;;;;;5.07;2.10;;;3.60;99.90;;;;;;5039490;28;20683;-85
2021/03/08 07:55:19;;;;;;;5.05;2.05;;;3.60;99.90;;;;;;5049059;28;20301;-87
2021/03/08 07:57:46;;;;;;;2.40;1.75;;;3.50;99.90;;;;;;5044990;28;20186;-85
2021/03/08 08:00:14;;;;;;;3.08;1.80;;;3.40;99.90;;;;;;5051749;28;20556;-79
2021/03/08 08:02:41;;;;;;;2.50;1.90;;;3.40;99.90;;;;;;5051788;28;20613;-82
2021/03/08 08:05:07;;;;;;;4.25;2.05;;;3.30;99.90;;;;;;5039918;28;20248;-82
2021/03/08 08:07:38;;;;;;;1.70;1.60;;;3.10;99.90;;;;;;5051364;28;20273;-82
2021/03/08 08:10:06;;;;;;;1.70;1.50;;;3.10;99.90;;;;;;5045109;28;20277;-83
2021/03/08 08:12:34;;;;;;;2.20;1.45;;;3.10;99.90;;;;;;5049684;28;20218;-83
2021/03/08 08:15:01;;;;;;;2.95;1.77;;;3.00;99.90;;;;;;5043097;28;20182;-79
2021/03/08 08:17:29;;;;;;;1.52;1.42;;;3.00;99.90;;;;;;5043707;28;20273;-78
2021/03/08 08:19:58;;;;;;;1.75;1.65;;;3.00;99.90;;;;;;5050271;28;20190;-78
2021/03/08 08:22:25;;;;;;;1.45;1.30;;;3.00;99.90;;;;;;5054555;28;20229;-78
2021/03/08 08:24:53;;;;;;;2.63;1.40;;;3.00;99.90;;;;;;5048029;28;20218;-77
2021/03/08 08:27:21;;;;;;;3.22;1.67;;;3.10;99.90;;;;;;5045034;28;20269;-78
2021/03/08 08:29:49;;;;;;;1.38;1.20;;;2.90;99.90;;;;;;5040375;28;20205;-78
2021/03/08 08:32:15;;;;;;;2.90;1.40;;;2.90;99.90;;;;;;5050055;28;20179;-81
2021/03/08 08:34:43;;;;;;;2.50;1.40;;;2.90;99.90;;;;;;5049504;28;20236;-82
2021/03/08 08:37:14;;;;;;;3.88;1.77;;;2.90;99.90;;;;;;5043599;28;20221;-81
2021/03/08 08:39:41;;;;;;;1.90;1.45;;;3.00;99.90;;;;;;5044856;28;20274;-79
2021/03/08 08:42:18;;;;;;;2.22;2.03;;;3.00;99.90;;;;;;5041222;28;20640;-77
2021/03/08 08:44:46;;;;;;;1.02;0.93;;;3.10;99.90;;;;;;5034435;28;20206;-84
2021/03/08 08:47:21;;;;;;;1.95;1.20;;;3.20;99.90;;;;;;5042066;28;20217;-83
2021/03/08 08:49:48;;;;;;;2.65;0.90;;;3.20;99.90;;;;;;5049139;28;20276;-82
2021/03/08 08:52:17;;;;;;;2.95;1.20;;;3.20;99.90;;;;;;5052933;28;20218;-82
2021/03/08 08:54:53;;;;;;;1.30;1.20;;;3.20;99.90;;;;;;5053504;28;20243;-82
2021/03/08 08:57:20;;;;;;;1.80;1.10;;;3.20;99.90;;;;;;5054083;28;20656;-82
2021/03/08 08:59:50;;;;;;;1.55;0.80;;;3.30;99.90;;;;;;5053753;28;20186;-82
2021/03/08 09:02:32;;;;;;;3.58;0.90;;;3.30;99.90;;;;;;5054433;28;20281;-82
2021/03/08 09:04:59;;;;;;;1.70;0.65;;;3.40;99.90;;;;;;5054250;28;20221;-82
2021/03/08 09:07:26;;;;;;;1.38;0.88;;;3.50;99.90;;;;;;5054186;28;20227;-82
2021/03/08 09:09:54;;;;;;;0.95;0.80;;;3.50;99.90;;;;;;5053876;28;20186;-82
2021/03/08 09:12:29;;;;;;;2.28;0.80;;;3.40;99.90;;;;;;5054317;28;20190;-82
2021/03/08 09:14:57;;;;;;;2.65;0.90;;;3.50;99.90;;;;;;5053175;28;20228;-82
2021/03/08 09:17:26;;;;;;;3.03;1.00;;;3.60;99.90;;;;;;5053968;28;20293;-82
2021/03/08 09:20:24;;;;;;;3.47;1.17;;;3.60;99.90;;;;;;5054053;28;20289;-82
2021/03/08 09:22:52;;;;;;;2.00;0.90;;;3.60;99.90;;;;;;5053540;28;20186;-82
2021/03/08 09:25:29;;;;;;;1.80;0.95;;;3.70;99.90;;;;;;5053781;28;20229;-82
2021/03/08 09:28:04;;;;;;;2.72;0.90;;;3.70;99.90;;;;;;5054164;28;20189;-82
2021/03/08 09:30:32;;;;;;;1.20;1.00;;;3.60;99.90;;;;;;5053985;28;20228;-82
2021/03/08 09:33:01;;;;;;;2.60;1.10;;;3.60;99.90;;;;;;5043587;28;20183;-82
2021/03/08 09:35:30;;;;;;;2.70;1.25;;;3.60;99.90;;;;;;5038516;28;20267;-82
2021/03/08 09:37:59;;;;;;;2.03;1.00;;;3.60;99.90;;;;;;5038721;28;20185;-82
2021/03/08 09:40:27;;;;;;;2.42;0.95;;;3.70;99.90;;;;;;5049513;28;20659;-82
2021/03/08 09:42:54;;;;;;;7.68;1.35;;;3.70;99.90;;;;;;5037002;28;20273;-82
2021/03/08 09:45:27;;;;;;;1.20;0.70;;;3.80;99.90;;;;;;5048021;28;20216;-76
2021/03/08 09:47:54;;;;;;;1.15;0.90;;;3.70;99.90;;;;;;5041308;28;20183;-79
2021/03/08 09:50:28;;;;;;;2.03;0.70;;;3.60;99.90;;;;;;5049056;28;20849;-76
2021/03/08 09:52:55;;;;;;;1.33;0.93;;;3.70;99.90;;;;;;5037435;28;20196;-76
2021/03/08 09:55:25;;;;;;;1.70;0.80;;;3.80;99.90;;;;;;5045649;28;20186;-76
2021/03/08 09:57:52;;;;;;;0.93;0.85;;;3.80;99.90;;;;;;5044754;28;20225;-76
2021/03/08 10:00:21;;;;;;;1.52;0.70;;;3.70;99.90;;;;;;5038114;28;20286;-76
2021/03/08 10:02:56;;;;;;;1.02;0.73;;;3.70;99.90;;;;;;5049579;28;20233;-76
2021/03/08 10:05:22;;;;;;;1.15;0.73;;;3.80;98.00;;;;;;5040605;28;20819;-78
2021/03/08 10:07:52;;;;;;;2.15;0.60;;;3.80;97.90;;;;;;5041540;28;20619;-81
2021/03/08 10:10:19;;;;;;;1.02;0.60;;;3.80;96.20;;;;;;5048058;28;20284;-83
2021/03/08 10:12:45;;;;;;;1.13;0.60;;;3.80;96.70;;;;;;5036428;28;20321;-76
2021/03/08 10:15:12;;;;;;;0.90;0.70;;;3.80;97.10;;;;;;5046514;28;20218;-72
2021/03/08 10:17:53;;;;;;;2.08;0.60;;;3.90;94.20;;;;;;5042755;28;20334;-75
2021/03/08 10:20:19;;;;;;;1.60;0.68;;;3.90;92.50;;;;;;5037290;28;20614;-74
2021/03/08 10:22:46;;;;;;;1.50;0.70;;;3.90;92.60;;;;;;5049024;28;20204;-78
2021/03/08 10:25:20;;;;;;;3.47;0.73;;;3.90;93.20;;;;;;5038299;28;20222;-75
2021/03/08 10:27:51;;;;;;;0.70;0.50;;;4.00;93.50;;;;;;5041699;28;20270;-74
2021/03/08 10:30:18;;;;;;;1.60;0.70;;;4.00;91.10;;;;;;5047847;28;20277;-75
2021/03/08 10:32:45;;;;;;;1.63;0.60;;;4.00;91.90;;;;;;5038844;28;20218;-74
2021/03/08 10:35:12;;;;;;;1.35;0.70;;;4.00;94.20;;;;;;5036753;28;20280;-76
2021/03/08 10:37:40;;;;;;;1.42;1.00;;;4.00;93.50;;;;;;5034826;28;20269;-76
2021/03/08 10:40:07;;;;;;;1.20;0.85;;;4.00;94.60;;;;;;5047948;28;20213;-76
2021/03/08 10:42:35;;;;;;;1.58;0.82;;;4.00;92.40;;;;;;5035786;28;20296;-76
2021/03/08 10:45:04;;;;;;;1.10;0.80;;;4.00;91.70;;;;;;5045860;28;20305;-76
2021/03/08 10:47:30;;;;;;;1.38;0.70;;;4.10;91.60;;;;;;5043182;28;20269;-76
2021/03/08 10:49:56;;;;;;;1.85;0.70;;;4.10;92.20;;;;;;5038208;28;20273;-77
2021/03/08 10:52:23;;;;;;;1.45;0.70;;;4.20;91.60;;;;;;5043780;28;20222;-77
2021/03/08 10:54:49;;;;;;;0.85;0.70;;;4.10;91.90;;;;;;5047327;28;20222;-77
2021/03/08 10:57:15;;;;;;;0.80;0.70;;;4.20;91.70;;;;;;5040878;28;20607;-76
2021/03/08 10:59:46;;;;;;;0.90;0.50;;;4.20;91.30;;;;;;5052250;28;20277;-76
2021/03/08 11:02:15;;;;;;;1.20;0.98;;;4.10;91.80;;;;;;5038050;28;20281;-77
2021/03/08 11:04:42;;;;;;;1.25;0.68;;;4.10;92.00;;;;;;5046125;28;20285;-77
2021/03/08 11:07:09;;;;;;;0.90;0.70;;;4.20;92.10;;;;;;5051192;28;20724;-76
2021/03/08 11:09:36;;;;;;;1.25;0.70;;;4.30;92.10;;;;;;5036975;28;20726;-75
2021/03/08 11:12:03;;;;;;;1.10;0.70;;;4.40;91.90;;;;;;5051967;28;20277;-74
2021/03/08 11:14:45;;;;;;;1.60;0.80;;;4.40;92.00;;;;;;5039795;28;20218;-75
2021/03/08 11:17:11;;;;;;;1.50;0.85;;;4.40;91.80;;;;;;5048460;28;20661;-74
2021/03/08 11:19:38;;;;;;;2.75;0.82;;;4.50;91.30;;;;;;5037251;28;20213;-74
2021/03/08 11:22:07;;;;;;;2.55;0.60;;;4.40;91.10;;;;;;5045096;28;20281;-74
2021/03/08 11:24:41;;;;;;;1.38;0.75;;;4.40;90.30;;;;;;5051633;28;20221;-74
2021/03/08 11:27:17;;;;;;;2.05;1.05;;;4.40;90.70;;;;;;5034998;28;20281;-74
2021/03/08 11:29:58;;;;;;;1.92;0.80;;;4.50;90.60;;;;;;5031995;28;20191;-74
2021/03/08 11:32:25;;;;;;;1.00;0.70;;;4.50;90.90;;;;;;5037638;28;20277;-74
2021/03/08 11:34:53;;;;;;;1.00;0.80;;;4.50;91.50;;;;;;5037040;28;20230;-74
2021/03/08 11:37:21;;;;;;;1.00;0.70;;;4.50;90.90;;;;;;5043158;28;20186;-74
2021/03/08 11:39:49;;;;;;;1.27;0.60;;;4.40;91.30;;;;;;5048677;28;20186;-74
2021/03/08 11:42:17;;;;;;;1.02;0.90;;;4.40;91.30;;;;;;5032843;28;20617;-74
2021/03/08 11:44:44;;;;;;;1.00;0.80;;;4.40;91.50;;;;;;5032067;28;20550;-74
2021/03/08 11:47:11;;;;;;;1.30;0.73;;;4.50;91.80;;;;;;5035299;28;20277;-74
2021/03/08 11:49:37;;;;;;;0.70;0.60;;;4.50;91.30;;;;;;5035807;28;20195;-74
2021/03/08 11:52:05;;;;;;;0.90;0.60;;;4.60;90.80;;;;;;5035922;28;20315;-74
2021/03/08 11:54:31;;;;;;;3.55;0.80;;;4.60;90.00;;;;;;5035855;28;20286;-74
2021/03/08 11:56:58;;;;;;;2.25;0.70;;;4.70;89.20;;;;;;5035764;28;20416;-74
2021/03/08 11:59:24;;;;;;;0.90;0.60;;;4.70;90.00;;;;;;5035665;28;20278;-74
2021/03/08 12:01:50;;;;;;;3.63;1.10;;;4.70;89.40;;;;;;5035762;28;20680;-76
2021/03/08 12:04:17;;;;;;;0.98;0.77;;;4.70;90.20;;;;;;5035911;28;20515;-77
2021/03/08 12:06:43;;;;;;;1.70;0.60;;;4.70;90.90;;;;;;5037835;28;20214;-76
2021/03/08 12:09:10;;;;;;;0.80;0.70;;;4.60;91.10;;;;;;5044244;28;20218;-75
2021/03/08 12:11:36;;;;;;;3.33;0.68;;;4.70;91.10;;;;;;5045039;28;20388;-75
2021/03/08 12:14:02;;;;;;;0.75;0.55;;;4.70;90.40;;;;;;5045419;28;20757;-76
2021/03/08 12:16:28;;;;;;;0.70;0.60;;;4.70;89.80;;;;;;5043598;28;20269;-76
2021/03/08 12:18:54;;;;;;;1.40;0.90;;;4.80;88.20;;;;;;5045563;28;20182;-76
2021/03/08 12:21:21;;;;;;;0.90;0.70;;;4.90;89.80;;;;;;5045406;28;20190;-77
2021/03/08 12:23:48;;;;;;;0.80;0.60;;;4.90;89.10;;;;;;5043705;28;20469;-76
2021/03/08 12:26:15;;;;;;;0.90;0.65;;;4.90;88.00;;;;;;5045146;28;20297;-75
2021/03/08 12:28:41;;;;;;;3.40;0.88;;;4.90;87.80;;;;;;5045294;28;20908;-77
2021/03/08 12:31:08;;;;;;;1.38;0.60;;;5.00;86.80;;;;;;5043504;28;20274;-77
2021/03/08 12:33:34;;;;;;;1.25;0.50;;;5.00;86.70;;;;;;5043975;28;20214;-76
2021/03/08 12:36:01;;;;;;;0.80;0.60;;;5.00;86.20;;;;;;5044421;28;20286;-75
2021/03/08 12:38:27;;;;;;;1.08;0.70;;;5.00;88.70;;;;;;5045076;28;20299;-75
2021/03/08 12:40:53;;;;;;;3.25;0.85;;;4.90;89.30;;;;;;5042850;28;20183;-75
2021/03/08 12:43:20;;;;;;;1.10;0.80;;;4.90;89.10;;;;;;5035020;28;20285;-75
2021/03/08 12:45:46;;;;;;;1.48;0.80;;;4.90;88.90;;;;;;5034823;28;20249;-75
2021/03/08 12:48:12;;;;;;;0.95;0.85;;;4.80;89.90;;;;;;5035048;28;20293;-75
2021/03/08 12:50:38;;;;;;;1.15;0.70;;;4.80;89.80;;;;;;5035139;28;20278;-75
2021/03/08 12:53:04;;;;;;;1.23;0.85;;;4.80;90.00;;;;;;5034736;28;20277;-75
2021/03/08 12:55:30;;;;;;;1.23;0.80;;;4.80;90.70;;;;;;5034774;28;20661;-75
2021/03/08 12:57:56;;;;;;;1.50;0.70;;;4.80;91.30;;;;;;5033685;28;21014;-75
2021/03/08 13:00:24;;;;;;;1.90;1.00;;;4.80;92.10;;;;;;5034951;28;20190;-76
2021/03/08 13:02:50;;;;;;;1.05;0.60;;;4.90;92.80;;;;;;5034764;28;20816;-75
2021/03/08 13:05:16;;;;;;;1.15;0.80;;;4.90;92.30;;;;;;5034619;28;20309;-75
2021/03/08 13:07:42;;;;;;;0.93;0.73;;;4.90;92.70;;;;;;5034534;28;20226;-77
2021/03/08 13:10:09;;;;;;;2.10;1.02;;;4.90;91.60;;;;;;5034625;28;20278;-75
2021/03/08 13:12:35;;;;;;;2.05;0.75;;;5.00;90.90;;;;;;5049327;28;20588;-75